sensor_id;sensor_type;location;lat;lon;timestamp;P1;durP1;ratioP1;P2;durP2;ratioP2
68806;SDS011;55800;54.272;18.558;2023-04-05T00:01:44;11.63;;;5.13;;
68806;SDS011;55800;54.272;18.558;2023-04-05T00:04:16;9.18;;;6.38;;
68806;SDS011;55800;54.272;18.558;2023-04-05T00:06:47;11.23;;;5.75;;
68806;SDS011;55800;54.272;18.558;2023-04-05T00:09:19;12.98;;;7.05;;
68806;SDS011;55800;54.272;18.558;2023-04-05T00:11:49;10.20;;;5.78;;
68806;SDS011;55800;54.272;18.558;2023-04-05T00:14:19;11.18;;;5.63;;
68806;SDS011;55800;54.272;18.558;2023-04-05T00:16:49;10.23;;;6.75;;
68806;SDS011;55800;54.272;18.558;2023-04-05T00:19:18;11.25;;;6.88;;
68806;SDS011;55800;54.272;18.558;2023-04-05T00:21:49;8.05;;;5.53;;
68806;SDS011;55800;54.272;18.558;2023-04-05T00:24:20;11.02;;;6.43;;
68806;SDS011;55800;54.272;18.558;2023-04-05T00:26:51;9.40;;;6.18;;
68806;SDS011;55800;54.272;18.558;2023-04-05T00:29:21;10.38;;;5.93;;
68806;SDS011;55800;54.272;18.558;2023-04-05T00:31:50;15.57;;;6.10;;
68806;SDS011;55800;54.272;18.558;2023-04-05T00:34:19;11.35;;;5.80;;
68806;SDS011;55800;54.272;18.558;2023-04-05T00:36:48;13.80;;;6.35;;
68806;SDS011;55800;54.272;18.558;2023-04-05T00:39:18;11.43;;;5.55;;
68806;SDS011;55800;54.272;18.558;2023-04-05T00:41:47;9.88;;;5.38;;
68806;SDS011;55800;54.272;18.558;2023-04-05T00:44:18;14.15;;;5.43;;
68806;SDS011;55800;54.272;18.558;2023-04-05T00:46:47;12.05;;;4.78;;
68806;SDS011;55800;54.272;18.558;2023-04-05T00:51:46;10.32;;;5.18;;
68806;SDS011;55800;54.272;18.558;2023-04-05T00:54:17;10.73;;;4.40;;
68806;SDS011;55800;54.272;18.558;2023-04-05T00:56:46;5.65;;;4.28;;
68806;SDS011;55800;54.272;18.558;2023-04-05T00:59:20;8.10;;;5.47;;
68806;SDS011;55800;54.272;18.558;2023-04-05T01:01:54;10.23;;;5.15;;
68806;SDS011;55800;54.272;18.558;2023-04-05T01:04:29;12.40;;;6.50;;
68806;SDS011;55800;54.272;18.558;2023-04-05T01:07:04;7.90;;;4.90;;
68806;SDS011;55800;54.272;18.558;2023-04-05T01:09:43;10.68;;;5.93;;
68806;SDS011;55800;54.272;18.558;2023-04-05T01:12:18;11.10;;;5.47;;
68806;SDS011;55800;54.272;18.558;2023-04-05T01:14:53;11.27;;;4.70;;
68806;SDS011;55800;54.272;18.558;2023-04-05T01:17:23;8.65;;;4.70;;
68806;SDS011;55800;54.272;18.558;2023-04-05T01:19:55;8.82;;;5.35;;
68806;SDS011;55800;54.272;18.558;2023-04-05T01:25:56;9.00;;;4.95;;
68806;SDS011;55800;54.272;18.558;2023-04-05T01:28:55;10.10;;;5.03;;
68806;SDS011;55800;54.272;18.558;2023-04-05T01:31:41;7.43;;;4.93;;
68806;SDS011;55800;54.272;18.558;2023-04-05T01:36:53;5.95;;;4.35;;
68806;SDS011;55800;54.272;18.558;2023-04-05T01:39:25;7.05;;;4.72;;
68806;SDS011;55800;54.272;18.558;2023-04-05T01:41:57;7.78;;;4.60;;
68806;SDS011;55800;54.272;18.558;2023-04-05T01:44:27;6.20;;;4.18;;
68806;SDS011;55800;54.272;18.558;2023-04-05T01:46:58;8.75;;;4.88;;
68806;SDS011;55800;54.272;18.558;2023-04-05T01:49:27;7.25;;;4.28;;
68806;SDS011;55800;54.272;18.558;2023-04-05T01:51:57;13.45;;;4.80;;
68806;SDS011;55800;54.272;18.558;2023-04-05T01:54:27;7.72;;;4.63;;
68806;SDS011;55800;54.272;18.558;2023-04-05T01:56:57;10.27;;;4.15;;
68806;SDS011;55800;54.272;18.558;2023-04-05T01:59:28;8.07;;;4.82;;
68806;SDS011;55800;54.272;18.558;2023-04-05T02:02:00;12.85;;;5.40;;
68806;SDS011;55800;54.272;18.558;2023-04-05T02:04:29;7.50;;;3.92;;
68806;SDS011;55800;54.272;18.558;2023-04-05T02:06:59;6.97;;;4.20;;
68806;SDS011;55800;54.272;18.558;2023-04-05T02:09:28;7.13;;;4.82;;
68806;SDS011;55800;54.272;18.558;2023-04-05T02:11:58;10.18;;;5.80;;
68806;SDS011;55800;54.272;18.558;2023-04-05T02:14:27;12.55;;;5.00;;
68806;SDS011;55800;54.272;18.558;2023-04-05T02:16:57;12.30;;;4.97;;
68806;SDS011;55800;54.272;18.558;2023-04-05T02:19:28;8.07;;;4.53;;
68806;SDS011;55800;54.272;18.558;2023-04-05T02:22:07;8.68;;;4.97;;
68806;SDS011;55800;54.272;18.558;2023-04-05T02:27:06;7.07;;;4.35;;
68806;SDS011;55800;54.272;18.558;2023-04-05T02:29:35;7.90;;;4.35;;
68806;SDS011;55800;54.272;18.558;2023-04-05T02:32:06;7.35;;;4.53;;
68806;SDS011;55800;54.272;18.558;2023-04-05T02:34:35;5.70;;;4.18;;
68806;SDS011;55800;54.272;18.558;2023-04-05T02:37:07;8.82;;;4.68;;
68806;SDS011;55800;54.272;18.558;2023-04-05T02:39:36;7.18;;;4.38;;
68806;SDS011;55800;54.272;18.558;2023-04-05T02:42:05;6.65;;;4.53;;
68806;SDS011;55800;54.272;18.558;2023-04-05T02:44:35;7.40;;;4.57;;
68806;SDS011;55800;54.272;18.558;2023-04-05T02:47:04;12.00;;;6.57;;
68806;SDS011;55800;54.272;18.558;2023-04-05T02:49:35;9.80;;;5.00;;
68806;SDS011;55800;54.272;18.558;2023-04-05T02:52:05;6.65;;;4.78;;
68806;SDS011;55800;54.272;18.558;2023-04-05T02:54:35;11.65;;;4.93;;
68806;SDS011;55800;54.272;18.558;2023-04-05T02:57:08;7.00;;;4.53;;
68806;SDS011;55800;54.272;18.558;2023-04-05T02:59:48;7.70;;;4.72;;
68806;SDS011;55800;54.272;18.558;2023-04-05T03:02:21;8.73;;;4.93;;
68806;SDS011;55800;54.272;18.558;2023-04-05T03:04:51;6.40;;;4.40;;
68806;SDS011;55800;54.272;18.558;2023-04-05T03:07:22;9.23;;;4.75;;
68806;SDS011;55800;54.272;18.558;2023-04-05T03:12:21;7.65;;;4.43;;
68806;SDS011;55800;54.272;18.558;2023-04-05T03:14:51;6.85;;;4.95;;
68806;SDS011;55800;54.272;18.558;2023-04-05T03:17:24;6.30;;;4.00;;
68806;SDS011;55800;54.272;18.558;2023-04-05T03:19:58;11.52;;;5.38;;
68806;SDS011;55800;54.272;18.558;2023-04-05T03:22:36;7.28;;;4.30;;
68806;SDS011;55800;54.272;18.558;2023-04-05T03:25:05;5.93;;;4.43;;
68806;SDS011;55800;54.272;18.558;2023-04-05T03:27:48;9.80;;;5.80;;
68806;SDS011;55800;54.272;18.558;2023-04-05T03:30:19;9.85;;;4.72;;
68806;SDS011;55800;54.272;18.558;2023-04-05T03:32:56;8.13;;;4.55;;
68806;SDS011;55800;54.272;18.558;2023-04-05T03:35:43;13.63;;;5.00;;
68806;SDS011;55800;54.272;18.558;2023-04-05T03:38:13;8.60;;;6.10;;
68806;SDS011;55800;54.272;18.558;2023-04-05T03:41:01;9.15;;;4.22;;
68806;SDS011;55800;54.272;18.558;2023-04-05T03:43:33;7.13;;;4.28;;
68806;SDS011;55800;54.272;18.558;2023-04-05T03:46:04;9.20;;;5.00;;
68806;SDS011;55800;54.272;18.558;2023-04-05T03:48:35;12.93;;;5.68;;
68806;SDS011;55800;54.272;18.558;2023-04-05T03:51:04;7.57;;;5.10;;
68806;SDS011;55800;54.272;18.558;2023-04-05T03:53:34;10.00;;;5.65;;
68806;SDS011;55800;54.272;18.558;2023-04-05T03:56:03;7.30;;;4.30;;
68806;SDS011;55800;54.272;18.558;2023-04-05T03:58:47;8.57;;;4.80;;
68806;SDS011;55800;54.272;18.558;2023-04-05T04:01:22;11.15;;;5.03;;
68806;SDS011;55800;54.272;18.558;2023-04-05T04:03:54;8.85;;;4.75;;
68806;SDS011;55800;54.272;18.558;2023-04-05T04:06:23;8.25;;;4.68;;
68806;SDS011;55800;54.272;18.558;2023-04-05T04:08:53;9.20;;;5.22;;
68806;SDS011;55800;54.272;18.558;2023-04-05T04:11:23;14.20;;;4.90;;
68806;SDS011;55800;54.272;18.558;2023-04-05T04:13:53;8.60;;;5.20;;
68806;SDS011;55800;54.272;18.558;2023-04-05T04:16:35;11.15;;;4.82;;
68806;SDS011;55800;54.272;18.558;2023-04-05T04:19:30;8.45;;;4.78;;
68806;SDS011;55800;54.272;18.558;2023-04-05T04:22:04;7.47;;;4.63;;
68806;SDS011;55800;54.272;18.558;2023-04-05T04:24:59;9.68;;;5.32;;
68806;SDS011;55800;54.272;18.558;2023-04-05T04:27:30;7.47;;;4.70;;
68806;SDS011;55800;54.272;18.558;2023-04-05T04:30:25;9.18;;;4.47;;
68806;SDS011;55800;54.272;18.558;2023-04-05T04:33:25;10.93;;;5.40;;
68806;SDS011;55800;54.272;18.558;2023-04-05T04:36:15;10.48;;;5.18;;
68806;SDS011;55800;54.272;18.558;2023-04-05T04:39:14;11.50;;;5.47;;
68806;SDS011;55800;54.272;18.558;2023-04-05T04:42:02;10.50;;;5.40;;
68806;SDS011;55800;54.272;18.558;2023-04-05T04:44:51;12.83;;;5.47;;
68806;SDS011;55800;54.272;18.558;2023-04-05T04:47:46;10.75;;;7.25;;
68806;SDS011;55800;54.272;18.558;2023-04-05T04:50:37;13.07;;;6.45;;
68806;SDS011;55800;54.272;18.558;2023-04-05T04:53:08;13.68;;;5.45;;
68806;SDS011;55800;54.272;18.558;2023-04-05T04:55:39;16.27;;;6.05;;
68806;SDS011;55800;54.272;18.558;2023-04-05T05:00:41;13.80;;;7.30;;
68806;SDS011;55800;54.272;18.558;2023-04-05T05:05:41;13.20;;;5.47;;
68806;SDS011;55800;54.272;18.558;2023-04-05T05:08:13;9.77;;;5.28;;
68806;SDS011;55800;54.272;18.558;2023-04-05T05:10:49;19.83;;;7.13;;
68806;SDS011;55800;54.272;18.558;2023-04-05T05:13:19;15.82;;;6.07;;
68806;SDS011;55800;54.272;18.558;2023-04-05T05:15:48;13.37;;;6.47;;
68806;SDS011;55800;54.272;18.558;2023-04-05T05:18:19;14.77;;;6.68;;
68806;SDS011;55800;54.272;18.558;2023-04-05T05:20:49;13.60;;;5.57;;
68806;SDS011;55800;54.272;18.558;2023-04-05T05:23:20;11.32;;;5.47;;
68806;SDS011;55800;54.272;18.558;2023-04-05T05:25:56;10.93;;;5.35;;
68806;SDS011;55800;54.272;18.558;2023-04-05T05:28:26;11.73;;;5.60;;
68806;SDS011;55800;54.272;18.558;2023-04-05T05:30:55;10.15;;;5.90;;
68806;SDS011;55800;54.272;18.558;2023-04-05T05:33:28;6.90;;;4.88;;
68806;SDS011;55800;54.272;18.558;2023-04-05T05:35:57;8.13;;;4.67;;
68806;SDS011;55800;54.272;18.558;2023-04-05T05:38:28;12.38;;;6.00;;
68806;SDS011;55800;54.272;18.558;2023-04-05T05:40:57;13.35;;;5.55;;
68806;SDS011;55800;54.272;18.558;2023-04-05T05:43:27;14.25;;;7.05;;
68806;SDS011;55800;54.272;18.558;2023-04-05T05:45:59;12.48;;;7.05;;
68806;SDS011;55800;54.272;18.558;2023-04-05T05:48:29;17.80;;;7.22;;
68806;SDS011;55800;54.272;18.558;2023-04-05T05:51:00;12.57;;;7.53;;
68806;SDS011;55800;54.272;18.558;2023-04-05T05:53:37;16.10;;;8.40;;
68806;SDS011;55800;54.272;18.558;2023-04-05T05:56:06;7.55;;;4.88;;
68806;SDS011;55800;54.272;18.558;2023-04-05T05:58:36;13.10;;;6.88;;
68806;SDS011;55800;54.272;18.558;2023-04-05T06:01:06;6.28;;;4.60;;
68806;SDS011;55800;54.272;18.558;2023-04-05T06:03:38;12.20;;;6.35;;
68806;SDS011;55800;54.272;18.558;2023-04-05T06:06:07;12.32;;;6.03;;
68806;SDS011;55800;54.272;18.558;2023-04-05T06:08:39;9.32;;;6.20;;
68806;SDS011;55800;54.272;18.558;2023-04-05T06:11:15;9.75;;;5.72;;
68806;SDS011;55800;54.272;18.558;2023-04-05T06:13:45;7.68;;;4.32;;
68806;SDS011;55800;54.272;18.558;2023-04-05T06:16:16;5.97;;;4.78;;
68806;SDS011;55800;54.272;18.558;2023-04-05T06:18:46;7.63;;;4.82;;
68806;SDS011;55800;54.272;18.558;2023-04-05T06:21:15;7.95;;;5.25;;
68806;SDS011;55800;54.272;18.558;2023-04-05T06:23:46;7.57;;;4.22;;
68806;SDS011;55800;54.272;18.558;2023-04-05T06:26:16;13.32;;;5.30;;
68806;SDS011;55800;54.272;18.558;2023-04-05T06:28:46;7.68;;;4.95;;
68806;SDS011;55800;54.272;18.558;2023-04-05T06:31:16;9.13;;;4.65;;
68806;SDS011;55800;54.272;18.558;2023-04-05T06:33:47;9.15;;;4.97;;
68806;SDS011;55800;54.272;18.558;2023-04-05T06:36:16;6.32;;;4.03;;
68806;SDS011;55800;54.272;18.558;2023-04-05T06:38:47;9.95;;;4.55;;
68806;SDS011;55800;54.272;18.558;2023-04-05T06:41:17;13.18;;;4.53;;
68806;SDS011;55800;54.272;18.558;2023-04-05T06:43:47;7.03;;;4.20;;
68806;SDS011;55800;54.272;18.558;2023-04-05T06:46:16;8.05;;;4.45;;
68806;SDS011;55800;54.272;18.558;2023-04-05T06:48:46;6.72;;;4.40;;
68806;SDS011;55800;54.272;18.558;2023-04-05T06:51:15;9.13;;;3.95;;
68806;SDS011;55800;54.272;18.558;2023-04-05T06:53:45;12.30;;;4.95;;
68806;SDS011;55800;54.272;18.558;2023-04-05T06:56:16;7.93;;;4.03;;
68806;SDS011;55800;54.272;18.558;2023-04-05T06:58:45;4.80;;;3.05;;
68806;SDS011;55800;54.272;18.558;2023-04-05T07:01:15;6.65;;;3.58;;
68806;SDS011;55800;54.272;18.558;2023-04-05T07:03:45;9.40;;;3.95;;
68806;SDS011;55800;54.272;18.558;2023-04-05T07:06:14;5.82;;;4.03;;
68806;SDS011;55800;54.272;18.558;2023-04-05T07:08:44;10.77;;;3.50;;
68806;SDS011;55800;54.272;18.558;2023-04-05T07:11:15;6.45;;;3.60;;
68806;SDS011;55800;54.272;18.558;2023-04-05T07:13:44;8.02;;;4.72;;
68806;SDS011;55800;54.272;18.558;2023-04-05T07:16:13;8.05;;;3.75;;
68806;SDS011;55800;54.272;18.558;2023-04-05T07:18:45;10.35;;;4.10;;
68806;SDS011;55800;54.272;18.558;2023-04-05T07:21:14;6.53;;;3.83;;
68806;SDS011;55800;54.272;18.558;2023-04-05T07:23:44;7.45;;;3.95;;
68806;SDS011;55800;54.272;18.558;2023-04-05T07:26:15;6.85;;;3.45;;
68806;SDS011;55800;54.272;18.558;2023-04-05T07:28:44;7.25;;;3.38;;
68806;SDS011;55800;54.272;18.558;2023-04-05T07:31:13;4.20;;;3.25;;
68806;SDS011;55800;54.272;18.558;2023-04-05T07:33:43;5.88;;;3.60;;
68806;SDS011;55800;54.272;18.558;2023-04-05T07:36:12;6.78;;;3.03;;
68806;SDS011;55800;54.272;18.558;2023-04-05T07:38:42;7.18;;;3.90;;
68806;SDS011;55800;54.272;18.558;2023-04-05T07:41:11;7.30;;;3.72;;
68806;SDS011;55800;54.272;18.558;2023-04-05T07:43:44;10.88;;;3.92;;
68806;SDS011;55800;54.272;18.558;2023-04-05T07:46:13;5.93;;;3.97;;
68806;SDS011;55800;54.272;18.558;2023-04-05T07:48:45;4.70;;;3.58;;
68806;SDS011;55800;54.272;18.558;2023-04-05T07:51:14;7.53;;;4.22;;
68806;SDS011;55800;54.272;18.558;2023-04-05T07:53:43;3.25;;;2.70;;
68806;SDS011;55800;54.272;18.558;2023-04-05T07:56:14;5.32;;;3.20;;
68806;SDS011;55800;54.272;18.558;2023-04-05T07:58:45;7.88;;;3.58;;
68806;SDS011;55800;54.272;18.558;2023-04-05T08:01:16;6.97;;;3.45;;
68806;SDS011;55800;54.272;18.558;2023-04-05T08:03:45;4.22;;;2.80;;
68806;SDS011;55800;54.272;18.558;2023-04-05T08:06:15;8.68;;;4.72;;
68806;SDS011;55800;54.272;18.558;2023-04-05T08:08:45;6.93;;;3.92;;
68806;SDS011;55800;54.272;18.558;2023-04-05T08:11:14;6.05;;;2.45;;
68806;SDS011;55800;54.272;18.558;2023-04-05T08:13:45;6.88;;;3.22;;
68806;SDS011;55800;54.272;18.558;2023-04-05T08:16:15;6.65;;;3.88;;
68806;SDS011;55800;54.272;18.558;2023-04-05T08:18:44;13.90;;;4.65;;
68806;SDS011;55800;54.272;18.558;2023-04-05T08:21:13;7.78;;;4.15;;
68806;SDS011;55800;54.272;18.558;2023-04-05T08:23:43;9.10;;;3.53;;
68806;SDS011;55800;54.272;18.558;2023-04-05T08:26:12;5.22;;;2.75;;
68806;SDS011;55800;54.272;18.558;2023-04-05T08:28:41;5.90;;;3.42;;
68806;SDS011;55800;54.272;18.558;2023-04-05T08:31:12;6.65;;;3.40;;
68806;SDS011;55800;54.272;18.558;2023-04-05T08:33:42;6.38;;;3.20;;
68806;SDS011;55800;54.272;18.558;2023-04-05T08:36:11;7.97;;;4.07;;
68806;SDS011;55800;54.272;18.558;2023-04-05T08:38:40;6.75;;;3.35;;
68806;SDS011;55800;54.272;18.558;2023-04-05T08:41:13;7.35;;;3.85;;
68806;SDS011;55800;54.272;18.558;2023-04-05T08:43:54;4.47;;;2.53;;
68806;SDS011;55800;54.272;18.558;2023-04-05T08:46:26;6.72;;;3.42;;
68806;SDS011;55800;54.272;18.558;2023-04-05T08:48:58;9.63;;;5.13;;
68806;SDS011;55800;54.272;18.558;2023-04-05T08:51:32;9.10;;;5.32;;
68806;SDS011;55800;54.272;18.558;2023-04-05T08:54:06;7.70;;;3.88;;
68806;SDS011;55800;54.272;18.558;2023-04-05T08:56:35;8.80;;;4.25;;
68806;SDS011;55800;54.272;18.558;2023-04-05T08:59:08;10.13;;;3.80;;
68806;SDS011;55800;54.272;18.558;2023-04-05T09:01:42;5.63;;;3.67;;
68806;SDS011;55800;54.272;18.558;2023-04-05T09:04:16;18.33;;;4.57;;
68806;SDS011;55800;54.272;18.558;2023-04-05T09:06:48;5.45;;;2.83;;
68806;SDS011;55800;54.272;18.558;2023-04-05T09:09:19;6.85;;;4.15;;
68806;SDS011;55800;54.272;18.558;2023-04-05T09:11:49;6.53;;;3.50;;
68806;SDS011;55800;54.272;18.558;2023-04-05T09:16:50;5.15;;;2.85;;
68806;SDS011;55800;54.272;18.558;2023-04-05T09:19:19;6.97;;;2.75;;
68806;SDS011;55800;54.272;18.558;2023-04-05T09:21:58;5.18;;;3.20;;
68806;SDS011;55800;54.272;18.558;2023-04-05T09:24:35;3.83;;;2.58;;
68806;SDS011;55800;54.272;18.558;2023-04-05T09:27:07;3.78;;;2.92;;
68806;SDS011;55800;54.272;18.558;2023-04-05T09:29:39;4.60;;;2.95;;
68806;SDS011;55800;54.272;18.558;2023-04-05T09:32:10;6.45;;;3.70;;
68806;SDS011;55800;54.272;18.558;2023-04-05T09:34:41;4.75;;;2.42;;
68806;SDS011;55800;54.272;18.558;2023-04-05T09:37:19;6.72;;;2.53;;
68806;SDS011;55800;54.272;18.558;2023-04-05T09:39:49;9.38;;;3.22;;
68806;SDS011;55800;54.272;18.558;2023-04-05T09:42:29;5.65;;;2.70;;
68806;SDS011;55800;54.272;18.558;2023-04-05T09:45:10;6.03;;;2.80;;
68806;SDS011;55800;54.272;18.558;2023-04-05T09:47:54;2.80;;;1.80;;
68806;SDS011;55800;54.272;18.558;2023-04-05T09:50:25;5.30;;;3.95;;
68806;SDS011;55800;54.272;18.558;2023-04-05T09:53:04;6.82;;;3.55;;
68806;SDS011;55800;54.272;18.558;2023-04-05T09:55:35;6.82;;;3.10;;
68806;SDS011;55800;54.272;18.558;2023-04-05T09:58:10;9.50;;;3.65;;
68806;SDS011;55800;54.272;18.558;2023-04-05T10:00:47;6.22;;;2.75;;
68806;SDS011;55800;54.272;18.558;2023-04-05T10:03:46;4.60;;;2.75;;
68806;SDS011;55800;54.272;18.558;2023-04-05T10:06:16;7.30;;;3.17;;
68806;SDS011;55800;54.272;18.558;2023-04-05T10:08:45;4.38;;;2.92;;
68806;SDS011;55800;54.272;18.558;2023-04-05T10:11:16;6.13;;;3.28;;
68806;SDS011;55800;54.272;18.558;2023-04-05T10:13:47;7.03;;;2.90;;
68806;SDS011;55800;54.272;18.558;2023-04-05T10:16:19;8.57;;;2.72;;
68806;SDS011;55800;54.272;18.558;2023-04-05T10:18:52;10.77;;;3.75;;
68806;SDS011;55800;54.272;18.558;2023-04-05T10:21:22;5.60;;;3.00;;
68806;SDS011;55800;54.272;18.558;2023-04-05T10:23:58;4.95;;;2.60;;
68806;SDS011;55800;54.272;18.558;2023-04-05T10:26:36;7.97;;;3.38;;
68806;SDS011;55800;54.272;18.558;2023-04-05T10:29:14;5.70;;;3.13;;
68806;SDS011;55800;54.272;18.558;2023-04-05T10:31:53;7.85;;;3.03;;
68806;SDS011;55800;54.272;18.558;2023-04-05T10:34:29;4.95;;;2.97;;
68806;SDS011;55800;54.272;18.558;2023-04-05T10:37:04;4.95;;;2.85;;
68806;SDS011;55800;54.272;18.558;2023-04-05T10:39:38;8.18;;;3.35;;
68806;SDS011;55800;54.272;18.558;2023-04-05T10:42:13;6.03;;;2.75;;
68806;SDS011;55800;54.272;18.558;2023-04-05T10:44:50;6.55;;;3.63;;
68806;SDS011;55800;54.272;18.558;2023-04-05T10:47:22;5.07;;;2.50;;
68806;SDS011;55800;54.272;18.558;2023-04-05T10:49:56;10.90;;;3.78;;
68806;SDS011;55800;54.272;18.558;2023-04-05T10:52:32;6.72;;;3.55;;
68806;SDS011;55800;54.272;18.558;2023-04-05T10:55:03;8.13;;;3.45;;
68806;SDS011;55800;54.272;18.558;2023-04-05T10:57:34;12.40;;;3.35;;
68806;SDS011;55800;54.272;18.558;2023-04-05T11:00:05;5.95;;;4.45;;
68806;SDS011;55800;54.272;18.558;2023-04-05T11:02:39;8.88;;;3.22;;
68806;SDS011;55800;54.272;18.558;2023-04-05T11:08:03;5.75;;;2.58;;
68806;SDS011;55800;54.272;18.558;2023-04-05T11:10:34;6.60;;;3.47;;
68806;SDS011;55800;54.272;18.558;2023-04-05T11:13:07;8.05;;;4.32;;
68806;SDS011;55800;54.272;18.558;2023-04-05T11:15:40;8.20;;;4.63;;
68806;SDS011;55800;54.272;18.558;2023-04-05T11:18:10;9.30;;;3.55;;
68806;SDS011;55800;54.272;18.558;2023-04-05T11:20:49;6.47;;;3.50;;
68806;SDS011;55800;54.272;18.558;2023-04-05T11:23:22;4.15;;;3.30;;
68806;SDS011;55800;54.272;18.558;2023-04-05T11:25:53;6.38;;;3.25;;
68806;SDS011;55800;54.272;18.558;2023-04-05T11:28:27;6.60;;;3.08;;
68806;SDS011;55800;54.272;18.558;2023-04-05T11:31:10;6.70;;;3.63;;
68806;SDS011;55800;54.272;18.558;2023-04-05T11:36:41;8.13;;;4.07;;
68806;SDS011;55800;54.272;18.558;2023-04-05T11:39:23;8.57;;;3.58;;
68806;SDS011;55800;54.272;18.558;2023-04-05T11:44:40;7.30;;;4.53;;
68806;SDS011;55800;54.272;18.558;2023-04-05T11:47:12;4.63;;;2.60;;
68806;SDS011;55800;54.272;18.558;2023-04-05T11:49:48;11.98;;;3.78;;
68806;SDS011;55800;54.272;18.558;2023-04-05T11:52:20;7.80;;;3.45;;
68806;SDS011;55800;54.272;18.558;2023-04-05T11:54:50;6.00;;;3.22;;
68806;SDS011;55800;54.272;18.558;2023-04-05T11:57:20;9.13;;;4.38;;
68806;SDS011;55800;54.272;18.558;2023-04-05T11:59:53;5.20;;;3.40;;
68806;SDS011;55800;54.272;18.558;2023-04-05T12:02:22;3.55;;;2.30;;
68806;SDS011;55800;54.272;18.558;2023-04-05T12:04:53;5.70;;;3.05;;
68806;SDS011;55800;54.272;18.558;2023-04-05T12:07:26;4.88;;;2.35;;
68806;SDS011;55800;54.272;18.558;2023-04-05T12:09:59;5.97;;;3.28;;
68806;SDS011;55800;54.272;18.558;2023-04-05T12:12:35;7.25;;;5.50;;
68806;SDS011;55800;54.272;18.558;2023-04-05T12:15:07;6.43;;;3.50;;
68806;SDS011;55800;54.272;18.558;2023-04-05T12:17:42;7.20;;;4.00;;
68806;SDS011;55800;54.272;18.558;2023-04-05T12:20:13;9.95;;;3.72;;
68806;SDS011;55800;54.272;18.558;2023-04-05T12:22:47;7.47;;;3.63;;
68806;SDS011;55800;54.272;18.558;2023-04-05T12:25:18;8.77;;;3.90;;
68806;SDS011;55800;54.272;18.558;2023-04-05T12:27:48;6.47;;;3.42;;
68806;SDS011;55800;54.272;18.558;2023-04-05T12:32:50;9.30;;;4.65;;
68806;SDS011;55800;54.272;18.558;2023-04-05T12:35:21;8.75;;;3.63;;
68806;SDS011;55800;54.272;18.558;2023-04-05T12:37:59;9.40;;;4.35;;
68806;SDS011;55800;54.272;18.558;2023-04-05T12:40:32;7.30;;;3.20;;
68806;SDS011;55800;54.272;18.558;2023-04-05T12:43:02;5.70;;;3.42;;
68806;SDS011;55800;54.272;18.558;2023-04-05T12:45:34;5.95;;;3.00;;
68806;SDS011;55800;54.272;18.558;2023-04-05T12:48:08;4.30;;;2.88;;
68806;SDS011;55800;54.272;18.558;2023-04-05T12:50:41;6.25;;;2.58;;
68806;SDS011;55800;54.272;18.558;2023-04-05T12:53:15;5.85;;;3.40;;
68806;SDS011;55800;54.272;18.558;2023-04-05T12:55:48;12.32;;;3.95;;
68806;SDS011;55800;54.272;18.558;2023-04-05T12:58:18;7.82;;;3.90;;
68806;SDS011;55800;54.272;18.558;2023-04-05T13:00:48;4.55;;;2.80;;
68806;SDS011;55800;54.272;18.558;2023-04-05T13:03:18;13.65;;;4.15;;
68806;SDS011;55800;54.272;18.558;2023-04-05T13:05:50;8.02;;;2.60;;
68806;SDS011;55800;54.272;18.558;2023-04-05T13:08:20;9.55;;;3.92;;
68806;SDS011;55800;54.272;18.558;2023-04-05T13:10:50;8.73;;;3.83;;
68806;SDS011;55800;54.272;18.558;2023-04-05T13:13:23;8.45;;;3.25;;
68806;SDS011;55800;54.272;18.558;2023-04-05T13:15:53;7.95;;;3.47;;
68806;SDS011;55800;54.272;18.558;2023-04-05T13:18:22;10.80;;;4.28;;
68806;SDS011;55800;54.272;18.558;2023-04-05T13:20:52;11.60;;;4.07;;
68806;SDS011;55800;54.272;18.558;2023-04-05T13:23:22;10.52;;;4.97;;
68806;SDS011;55800;54.272;18.558;2023-04-05T13:25:52;7.28;;;4.13;;
68806;SDS011;55800;54.272;18.558;2023-04-05T13:28:21;8.18;;;3.55;;
68806;SDS011;55800;54.272;18.558;2023-04-05T13:30:52;7.28;;;3.83;;
68806;SDS011;55800;54.272;18.558;2023-04-05T13:33:21;8.35;;;4.25;;
68806;SDS011;55800;54.272;18.558;2023-04-05T13:35:50;11.00;;;4.07;;
68806;SDS011;55800;54.272;18.558;2023-04-05T13:38:20;10.35;;;4.15;;
68806;SDS011;55800;54.272;18.558;2023-04-05T13:40:51;10.63;;;4.30;;
68806;SDS011;55800;54.272;18.558;2023-04-05T13:43:20;8.90;;;4.40;;
68806;SDS011;55800;54.272;18.558;2023-04-05T13:45:49;11.25;;;5.03;;
68806;SDS011;55800;54.272;18.558;2023-04-05T13:48:18;11.50;;;4.97;;
68806;SDS011;55800;54.272;18.558;2023-04-05T13:50:48;11.23;;;3.83;;
68806;SDS011;55800;54.272;18.558;2023-04-05T13:53:17;10.40;;;4.32;;
68806;SDS011;55800;54.272;18.558;2023-04-05T13:55:49;6.70;;;3.72;;
68806;SDS011;55800;54.272;18.558;2023-04-05T13:58:19;9.50;;;4.90;;
68806;SDS011;55800;54.272;18.558;2023-04-05T14:00:48;6.60;;;4.95;;
68806;SDS011;55800;54.272;18.558;2023-04-05T14:03:19;7.97;;;5.35;;
68806;SDS011;55800;54.272;18.558;2023-04-05T14:08:21;11.50;;;5.10;;
68806;SDS011;55800;54.272;18.558;2023-04-05T14:10:52;6.60;;;3.58;;
68806;SDS011;55800;54.272;18.558;2023-04-05T14:13:21;9.18;;;4.82;;
68806;SDS011;55800;54.272;18.558;2023-04-05T14:15:51;12.77;;;4.53;;
68806;SDS011;55800;54.272;18.558;2023-04-05T14:18:20;10.38;;;4.20;;
68806;SDS011;55800;54.272;18.558;2023-04-05T14:20:50;10.30;;;4.75;;
68806;SDS011;55800;54.272;18.558;2023-04-05T14:23:19;11.43;;;4.93;;
68806;SDS011;55800;54.272;18.558;2023-04-05T14:25:49;15.55;;;6.13;;
68806;SDS011;55800;54.272;18.558;2023-04-05T14:28:20;11.30;;;4.60;;
68806;SDS011;55800;54.272;18.558;2023-04-05T14:30:49;11.98;;;4.70;;
68806;SDS011;55800;54.272;18.558;2023-04-05T14:33:19;11.30;;;4.43;;
68806;SDS011;55800;54.272;18.558;2023-04-05T14:35:49;11.18;;;5.60;;
68806;SDS011;55800;54.272;18.558;2023-04-05T14:38:19;12.70;;;5.18;;
68806;SDS011;55800;54.272;18.558;2023-04-05T14:40:48;6.60;;;4.38;;
68806;SDS011;55800;54.272;18.558;2023-04-05T14:43:19;9.43;;;4.30;;
68806;SDS011;55800;54.272;18.558;2023-04-05T14:45:49;10.98;;;5.07;;
68806;SDS011;55800;54.272;18.558;2023-04-05T14:48:18;8.68;;;3.88;;
68806;SDS011;55800;54.272;18.558;2023-04-05T14:50:48;13.57;;;5.43;;
68806;SDS011;55800;54.272;18.558;2023-04-05T14:53:17;7.50;;;4.53;;
68806;SDS011;55800;54.272;18.558;2023-04-05T14:55:47;8.73;;;3.97;;
68806;SDS011;55800;54.272;18.558;2023-04-05T14:58:16;10.63;;;4.82;;
68806;SDS011;55800;54.272;18.558;2023-04-05T15:00:47;9.50;;;4.45;;
68806;SDS011;55800;54.272;18.558;2023-04-05T15:03:17;10.25;;;5.68;;
68806;SDS011;55800;54.272;18.558;2023-04-05T15:08:16;6.63;;;3.78;;
68806;SDS011;55800;54.272;18.558;2023-04-05T15:10:46;7.22;;;4.18;;
68806;SDS011;55800;54.272;18.558;2023-04-05T15:15:49;10.25;;;4.97;;
68806;SDS011;55800;54.272;18.558;2023-04-05T15:18:18;6.80;;;3.78;;
68806;SDS011;55800;54.272;18.558;2023-04-05T15:20:48;12.93;;;4.10;;
68806;SDS011;55800;54.272;18.558;2023-04-05T15:23:19;10.23;;;4.80;;
68806;SDS011;55800;54.272;18.558;2023-04-05T15:25:48;10.85;;;4.82;;
68806;SDS011;55800;54.272;18.558;2023-04-05T15:28:18;10.80;;;4.97;;
68806;SDS011;55800;54.272;18.558;2023-04-05T15:30:49;8.20;;;4.40;;
68806;SDS011;55800;54.272;18.558;2023-04-05T15:33:20;8.75;;;4.13;;
68806;SDS011;55800;54.272;18.558;2023-04-05T15:35:50;13.25;;;4.70;;
68806;SDS011;55800;54.272;18.558;2023-04-05T15:38:19;9.93;;;4.43;;
68806;SDS011;55800;54.272;18.558;2023-04-05T15:40:49;7.28;;;4.15;;